Terminal Aerodrome Forecast
Issued by NWS

Home | Current Version | Previous Version | Text Only | Print | Product List | Glossary On
Versions: 1 2 3 4 5 6 7 8 9 10 11 12 13 14 15 16
000
FTUS46 KSEW 181122
TAFOLM
TAF
KOLM 181122Z 1812/1912 00000KT P6SM OVC030
     FM181500 18010KT 5SM -RA BR OVC020
     FM181800 18018G28KT 4SM -RA BR OVC015
     FM190300 20013KT 2SM -RA BR OVC010=

USA.gov is the U.S. government's official web portal to all federal, state and local government web resources and services.